Time;durP1;ratioP1;P1;durP2;ratioP2;P2;SDS_P1;SDS_P2;PMS_P1;PMS_P2;Temp;Humidity;BMP_temperature;BMP_pressure;BME280_temperature;BME280_humidity;BME280_pressure;Samples;Min_cycle;Max_cycle;Signal;HPM_P1;HPM_P2
2022/05/04 00:01:20;;;;;;;;;;;;;;;7.19;100.00;99703.50;5034373;28;910;-57
2022/05/04 00:03:46;;;;;;;;;;;;;;;7.11;100.00;99700.72;5033367;28;842;-57
2022/05/04 00:06:13;;;;;;;;;;;;;;;7.08;100.00;99703.41;5034225;28;852;-57
2022/05/04 00:08:40;;;;;;;;;;;;;;;7.01;100.00;99701.41;5032988;28;850;-57
2022/05/04 00:11:07;;;;;;;;;;;;;;;6.91;100.00;99702.09;5034132;28;830;-57
2022/05/04 00:13:33;;;;;;;;;;;;;;;6.79;100.00;99707.91;5033878;28;1890;-56
2022/05/04 00:16:03;;;;;;;;;;;;;;;6.65;100.00;99703.84;5033999;28;863;-56
2022/05/04 00:18:30;;;;;;;;;;;;;;;6.51;100.00;99698.25;5033920;28;869;-56
2022/05/04 00:20:58;;;;;;;;;;;;;;;6.41;100.00;99709.91;5034004;28;775;-56
2022/05/04 00:23:25;;;;;;;;;;;;;;;6.30;100.00;99710.56;5033919;28;838;-56
2022/05/04 00:25:52;;;;;;;;;;;;;;;6.37;100.00;99711.81;5036265;28;1390;-56
2022/05/04 00:28:18;;;;;;;;;;;;;;;6.34;100.00;99718.84;5053726;28;854;-56
2022/05/04 00:30:45;;;;;;;;;;;;;;;6.15;100.00;99719.81;5053688;28;873;-56
2022/05/04 00:33:12;;;;;;;;;;;;;;;5.99;100.00;99714.50;5053487;28;1918;-55
2022/05/04 00:35:39;;;;;;;;;;;;;;;5.83;100.00;99722.13;5053499;28;920;-56
2022/05/04 00:38:05;;;;;;;;;;;;;;;5.70;100.00;99721.56;5053413;28;1017;-55
2022/05/04 00:40:32;;;;;;;;;;;;;;;5.62;100.00;99722.63;5053432;28;803;-55
2022/05/04 00:42:59;;;;;;;;;;;;;;;5.54;100.00;99724.47;5053328;28;855;-55
2022/05/04 00:45:26;;;;;;;;;;;;;;;5.52;100.00;99719.34;5053413;28;834;-55
2022/05/04 00:47:53;;;;;;;;;;;;;;;5.56;100.00;99721.38;5053404;28;822;-55
2022/05/04 00:50:20;;;;;;;;;;;;;;;5.52;100.00;99733.06;5053308;28;830;-56
2022/05/04 00:52:47;;;;;;;;;;;;;;;5.52;100.00;99730.31;5053193;28;1889;-56
2022/05/04 00:55:16;;;;;;;;;;;;;;;5.50;100.00;99731.84;5053217;28;823;-55
2022/05/04 01:00:28;;;;;;;;;;;;;;;5.58;100.00;99733.53;5053134;28;676;-55
2022/05/04 01:02:55;;;;;;;;;;;;;;;5.51;100.00;99730.72;5053101;28;822;-56
2022/05/04 01:05:22;;;;;;;;;;;;;;;5.51;100.00;99738.94;5053031;28;916;-55
2022/05/04 01:07:50;;;;;;;;;;;;;;;5.53;100.00;99728.41;5035149;28;882;-56
2022/05/04 01:10:17;;;;;;;;;;;;;;;5.57;100.00;99728.44;5052725;28;1192;-55
2022/05/04 01:12:49;;;;;;;;;;;;;;;5.53;100.00;99726.44;5052795;28;1951;-56
2022/05/04 01:15:17;;;;;;;;;;;;;;;5.48;100.00;99729.50;5052667;28;918;-56
2022/05/04 01:17:44;;;;;;;;;;;;;;;5.50;100.00;99734.59;5052743;28;838;-56
2022/05/04 01:20:11;;;;;;;;;;;;;;;5.48;100.00;99726.75;5052870;28;877;-55
2022/05/04 01:22:38;;;;;;;;;;;;;;;5.44;100.00;99725.91;5052673;28;886;-56
2022/05/04 01:25:05;;;;;;;;;;;;;;;5.41;100.00;99731.34;5052746;28;929;-56
2022/05/04 01:27:31;;;;;;;;;;;;;;;5.34;100.00;99729.28;5052348;28;1407;-56
2022/05/04 01:29:58;;;;;;;;;;;;;;;5.29;100.00;99724.09;5052624;28;874;-55
2022/05/04 01:32:25;;;;;;;;;;;;;;;5.24;100.00;99724.44;5052477;28;806;-56
2022/05/04 01:34:52;;;;;;;;;;;;;;;5.19;100.00;99722.00;5052454;28;822;-55
2022/05/04 01:37:19;;;;;;;;;;;;;;;5.15;100.00;99723.91;5052538;28;854;-56
2022/05/04 01:39:46;;;;;;;;;;;;;;;5.15;100.00;99721.94;5052247;28;806;-55
2022/05/04 01:42:16;;;;;;;;;;;;;;;5.16;100.00;99720.78;5052543;28;898;-56
2022/05/04 01:44:43;;;;;;;;;;;;;;;5.22;100.00;99729.50;5052394;28;881;-55
2022/05/04 01:47:10;;;;;;;;;;;;;;;5.20;100.00;99721.63;5052336;28;807;-56
2022/05/04 01:49:37;;;;;;;;;;;;;;;5.22;100.00;99727.53;5052132;28;815;-56
2022/05/04 01:52:04;;;;;;;;;;;;;;;5.30;100.00;99731.19;5052091;28;889;-55
2022/05/04 01:54:31;;;;;;;;;;;;;;;5.36;100.00;99734.41;5052022;28;1882;-56
2022/05/04 01:56:57;;;;;;;;;;;;;;;5.38;100.00;99741.09;5052062;28;826;-55
2022/05/04 01:59:23;;;;;;;;;;;;;;;5.45;100.00;99738.44;5052086;28;864;-55
2022/05/04 02:01:50;;;;;;;;;;;;;;;5.55;100.00;99739.78;5052111;28;854;-56
2022/05/04 02:04:17;;;;;;;;;;;;;;;5.63;100.00;99744.22;5051965;28;827;-56
2022/05/04 02:06:45;;;;;;;;;;;;;;;5.70;100.00;99744.28;5051823;28;933;-56
2022/05/04 02:09:11;;;;;;;;;;;;;;;5.63;100.00;99752.44;5051815;28;806;-55
2022/05/04 02:11:39;;;;;;;;;;;;;;;5.53;100.00;99751.09;5051822;28;823;-55
2022/05/04 02:14:06;;;;;;;;;;;;;;;5.44;100.00;99742.38;5051670;28;1967;-55
2022/05/04 02:16:32;;;;;;;;;;;;;;;5.43;100.00;99757.22;5051736;28;1006;-56
2022/05/04 02:18:59;;;;;;;;;;;;;;;5.45;100.00;99754.13;5033923;28;1615;-56
2022/05/04 02:21:26;;;;;;;;;;;;;;;5.47;100.00;99749.06;5051649;28;885;-56
2022/05/04 02:23:53;;;;;;;;;;;;;;;5.55;100.00;99749.94;5051633;28;819;-56
2022/05/04 02:26:19;;;;;;;;;;;;;;;5.65;100.00;99757.53;5051034;28;1193;-56
2022/05/04 02:28:45;;;;;;;;;;;;;;;5.69;100.00;99758.38;5051561;28;878;-56
2022/05/04 02:31:11;;;;;;;;;;;;;;;5.72;100.00;99765.88;5051416;28;860;-55
2022/05/04 02:33:38;;;;;;;;;;;;;;;5.76;100.00;99760.41;5051435;28;1914;-54
2022/05/04 02:38:49;;;;;;;;;;;;;;;5.77;100.00;99764.75;5051386;28;611;-55
2022/05/04 02:41:17;;;;;;;;;;;;;;;5.81;100.00;99766.38;5051573;28;850;-55
2022/05/04 02:43:44;;;;;;;;;;;;;;;5.79;100.00;99771.44;5051288;28;835;-55
2022/05/04 02:46:15;;;;;;;;;;;;;;;5.85;100.00;99767.22;5051322;28;899;-55
2022/05/04 02:48:42;;;;;;;;;;;;;;;5.80;100.00;99770.28;5051385;28;799;-55
2022/05/04 02:51:09;;;;;;;;;;;;;;;5.88;100.00;99769.22;5051312;28;811;-55
2022/05/04 02:53:36;;;;;;;;;;;;;;;6.05;100.00;99770.66;5051197;28;2018;-55
2022/05/04 02:56:02;;;;;;;;;;;;;;;6.26;100.00;99775.59;5051336;28;855;-56
2022/05/04 02:58:29;;;;;;;;;;;;;;;6.47;100.00;99772.31;5051188;28;937;-56
2022/05/04 03:02:26;;;;;;;;;;;;;;;6.65;100.00;99774.47;5051199;28;889;-56
2022/05/04 03:03:52;;;;;;;;;;;;;;;6.76;100.00;99780.84;5051051;28;798;-56
2022/05/04 03:06:19;;;;;;;;;;;;;;;6.85;100.00;99783.28;5051206;28;882;-56
2022/05/04 03:08:46;;;;;;;;;;;;;;;6.86;100.00;99787.63;5033170;28;917;-55
2022/05/04 03:13:58;;;;;;;;;;;;;;;6.43;100.00;99784.44;5051126;28;1882;-56
2022/05/04 03:16:24;;;;;;;;;;;;;;;6.27;100.00;99779.13;5051022;28;918;-56
2022/05/04 03:18:51;;;;;;;;;;;;;;;6.10;100.00;99794.22;5051156;28;889;-55
2022/05/04 03:21:18;;;;;;;;;;;;;;;5.96;100.00;99794.06;5051072;28;850;-55
2022/05/04 03:23:47;;;;;;;;;;;;;;;5.84;100.00;99793.06;5050990;28;890;-54
2022/05/04 03:26:13;;;;;;;;;;;;;;;5.80;100.00;99788.69;5050880;28;1424;-56
2022/05/04 03:28:40;;;;;;;;;;;;;;;5.80;100.00;99794.97;5050989;28;869;-55
2022/05/04 03:31:06;;;;;;;;;;;;;;;5.82;100.00;99800.88;5050987;28;877;-55
2022/05/04 03:33:32;;;;;;;;;;;;;;;5.84;100.00;99798.53;5050892;28;1919;-55
2022/05/04 03:35:59;;;;;;;;;;;;;;;5.84;100.00;99803.25;5050912;28;814;-55
2022/05/04 03:38:26;;;;;;;;;;;;;;;5.84;100.00;99803.25;5051987;28;1007;-56
2022/05/04 03:40:54;;;;;;;;;;;;;;;5.85;100.00;99813.84;5054619;28;838;-55
2022/05/04 03:43:20;;;;;;;;;;;;;;;5.90;100.00;99813.53;5054629;28;846;-56
2022/05/04 03:45:47;;;;;;;;;;;;;;;5.91;100.00;99814.31;5054786;28;885;-56
2022/05/04 03:48:14;;;;;;;;;;;;;;;5.92;100.00;99811.22;5054544;28;826;-56
2022/05/04 03:50:44;;;;;;;;;;;;;;;5.93;100.00;99817.47;5054476;28;889;-56
2022/05/04 03:53:11;;;;;;;;;;;;;;;5.92;100.00;99819.44;5054221;28;1890;-56
2022/05/04 03:55:38;;;;;;;;;;;;;;;5.98;100.00;99822.69;5054385;28;819;-56
2022/05/04 03:58:05;;;;;;;;;;;;;;;6.03;100.00;99830.59;5054260;28;996;-56
2022/05/04 04:00:32;;;;;;;;;;;;;;;6.07;100.00;99819.66;5054147;28;1092;-56
2022/05/04 04:02:58;;;;;;;;;;;;;;;6.11;100.00;99824.03;5054220;28;807;-55
2022/05/04 04:05:25;;;;;;;;;;;;;;;6.12;100.00;99822.91;5054160;28;885;-55
2022/05/04 04:07:52;;;;;;;;;;;;;;;6.21;100.00;99822.59;5054044;28;814;-55
2022/05/04 04:10:19;;;;;;;;;;;;;;;6.30;100.00;99825.06;5054035;28;872;-56
2022/05/04 04:12:46;;;;;;;;;;;;;;;6.46;100.00;99824.88;5053969;28;1890;-56
2022/05/04 04:15:13;;;;;;;;;;;;;;;6.58;100.00;99832.84;5053986;28;889;-56
2022/05/04 04:17:40;;;;;;;;;;;;;;;6.75;100.00;99826.00;5053905;28;842;-55
2022/05/04 04:22:51;;;;;;;;;;;;;;;7.46;100.00;99830.56;5053872;28;632;-55
2022/05/04 04:25:17;;;;;;;;;;;;;;;7.80;100.00;99831.22;5053728;28;1007;-56
2022/05/04 04:27:43;;;;;;;;;;;;;;;8.08;100.00;99838.88;5053521;28;1451;-56
2022/05/04 04:30:11;;;;;;;;;;;;;;;8.34;100.00;99832.34;5053724;28;877;-56
2022/05/04 04:32:37;;;;;;;;;;;;;;;8.59;99.31;99843.47;5053527;28;1906;-56
2022/05/04 04:35:05;;;;;;;;;;;;;;;8.87;96.67;99838.44;5053584;28;899;-56
2022/05/04 04:37:31;;;;;;;;;;;;;;;9.07;94.23;99838.84;5053528;28;861;-55
2022/05/04 04:39:58;;;;;;;;;;;;;;;9.20;93.22;99843.63;5053775;28;879;-56
2022/05/04 04:42:24;;;;;;;;;;;;;;;9.29;91.36;99848.75;5053527;28;811;-56
2022/05/04 04:44:51;;;;;;;;;;;;;;;9.43;91.24;99849.94;5053420;28;839;-55
2022/05/04 04:47:18;;;;;;;;;;;;;;;9.59;91.02;99847.59;5053487;28;862;-55
2022/05/04 04:49:45;;;;;;;;;;;;;;;9.68;90.40;99847.19;5053172;28;800;-55
2022/05/04 04:52:12;;;;;;;;;;;;;;;9.76;89.82;99846.78;5053634;28;826;-55
2022/05/04 04:54:39;;;;;;;;;;;;;;;9.85;88.50;99849.13;5053172;28;1951;-55
2022/05/04 04:57:05;;;;;;;;;;;;;;;9.96;88.91;99841.66;5053203;28;807;-56
2022/05/04 04:59:32;;;;;;;;;;;;;;;10.05;87.90;99849.50;5053162;28;864;-55
2022/05/04 05:01:58;;;;;;;;;;;;;;;10.16;87.80;99850.28;5053102;28;823;-55
2022/05/04 05:04:25;;;;;;;;;;;;;;;10.28;87.20;99846.28;5053136;28;822;-55
2022/05/04 05:06:52;;;;;;;;;;;;;;;10.69;86.80;99856.03;5053014;28;865;-56
2022/05/04 05:09:18;;;;;;;;;;;;;;;11.40;86.34;99849.28;5053045;28;822;-56
2022/05/04 05:11:45;;;;;;;;;;;;;;;12.27;83.57;99844.56;5053011;28;870;-55
2022/05/04 05:16:56;;;;;;;;;;;;;;;14.12;76.59;99858.91;5053090;28;610;-55
2022/05/04 05:19:23;;;;;;;;;;;;;;;14.76;75.79;99854.09;5052842;28;1029;-55
2022/05/04 05:21:50;;;;;;;;;;;;;;;15.28;77.67;99850.56;5052775;28;930;-56
2022/05/04 05:24:17;;;;;;;;;;;;;;;15.76;75.75;99856.59;5052847;28;811;-55
2022/05/04 05:26:44;;;;;;;;;;;;;;;16.05;77.56;99865.00;5052716;28;1207;-56
2022/05/04 05:29:10;;;;;;;;;;;;;;;15.83;77.74;99850.03;5052826;28;806;-56
2022/05/04 05:31:37;;;;;;;;;;;;;;;15.34;79.01;99855.59;5052802;28;866;-55
2022/05/04 05:34:04;;;;;;;;;;;;;;;14.98;82.05;99850.84;5052576;28;1980;-56
2022/05/04 05:36:31;;;;;;;;;;;;;;;14.74;85.79;99855.72;5052754;28;796;-56
2022/05/04 05:38:58;;;;;;;;;;;;;;;15.30;83.04;99852.91;5052603;28;811;-56
2022/05/04 05:41:25;;;;;;;;;;;;;;;16.30;81.08;99855.16;5052528;28;823;-55
2022/05/04 05:43:52;;;;;;;;;;;;;;;16.14;80.45;99853.22;5052682;28;819;-55
2022/05/04 05:46:18;;;;;;;;;;;;;;;15.84;81.12;99854.41;5052546;28;870;-56
2022/05/04 05:48:48;;;;;;;;;;;;;;;16.60;79.27;99855.94;5052614;28;870;-56
2022/05/04 05:51:15;;;;;;;;;;;;;;;16.50;79.38;99857.81;5052220;28;868;-55
2022/05/04 05:53:41;;;;;;;;;;;;;;;16.27;77.86;99856.84;5052145;28;1898;-56
2022/05/04 05:56:08;;;;;;;;;;;;;;;16.82;79.51;99854.13;5052189;28;799;-55
2022/05/04 05:58:35;;;;;;;;;;;;;;;16.92;79.07;99853.03;5052274;28;837;-55
2022/05/04 06:01:02;;;;;;;;;;;;;;;16.16;82.77;99859.13;5051560;28;803;-56
2022/05/04 06:03:29;;;;;;;;;;;;;;;15.55;84.63;99854.31;5052307;28;783;-56
2022/05/04 06:05:55;;;;;;;;;;;;;;;15.14;86.15;99855.66;5052118;28;842;-56
2022/05/04 06:08:22;;;;;;;;;;;;;;;14.70;88.32;99851.03;5052221;28;799;-55
2022/05/04 06:10:48;;;;;;;;;;;;;;;14.73;89.10;99849.41;5052275;28;792;-55
2022/05/04 06:13:15;;;;;;;;;;;;;;;14.84;88.03;99861.06;5052028;28;1952;-55
2022/05/04 06:15:41;;;;;;;;;;;;;;;14.65;86.08;99847.97;5051773;28;806;-56
2022/05/04 06:18:09;;;;;;;;;;;;;;;14.47;86.40;99851.88;5051716;28;815;-56
2022/05/04 06:20:36;;;;;;;;;;;;;;;14.15;86.97;99849.72;5052114;28;1130;-56
2022/05/04 06:23:04;;;;;;;;;;;;;;;13.96;89.00;99850.47;5051785;28;831;-56
2022/05/04 06:25:30;;;;;;;;;;;;;;;14.03;89.90;99847.56;5052325;28;899;-56
2022/05/04 06:27:57;;;;;;;;;;;;;;;15.71;84.73;99845.94;5051558;28;1470;-55
2022/05/04 06:35:54;;;;;;;;;;;;;;;21.54;67.01;99841.69;5051400;28;684;-56
2022/05/04 06:38:21;;;;;;;;;;;;;;;22.39;64.19;99843.44;5051550;28;815;-56
2022/05/04 06:40:48;;;;;;;;;;;;;;;22.75;60.13;99836.66;5051415;28;827;-56
2022/05/04 06:43:14;;;;;;;;;;;;;;;21.40;56.43;99843.16;5051335;28;895;-56
2022/05/04 06:45:41;;;;;;;;;;;;;;;19.31;64.27;99847.13;5051361;28;966;-56
2022/05/04 06:48:08;;;;;;;;;;;;;;;17.49;58.91;99844.84;5051323;28;938;-57
2022/05/04 06:50:35;;;;;;;;;;;;;;;16.26;66.05;99860.09;5051154;28;871;-56
2022/05/04 06:53:01;;;;;;;;;;;;;;;15.66;68.82;99863.16;5051318;28;1894;-57
2022/05/04 06:55:27;;;;;;;;;;;;;;;15.50;69.67;99863.97;5051332;28;862;-56
2022/05/04 06:57:54;;;;;;;;;;;;;;;15.55;65.10;99859.88;5051298;28;822;-56
2022/05/04 07:00:20;;;;;;;;;;;;;;;15.66;66.39;99868.75;5051224;28;890;-56
2022/05/04 07:02:47;;;;;;;;;;;;;;;16.10;74.45;99858.09;5051206;28;850;-55
2022/05/04 07:05:13;;;;;;;;;;;;;;;16.31;73.95;99863.09;5051089;28;926;-56
2022/05/04 07:07:41;;;;;;;;;;;;;;;16.56;69.58;99858.84;5051214;28;823;-56
2022/05/04 07:10:08;;;;;;;;;;;;;;;16.91;63.70;99859.03;5051180;28;871;-56
2022/05/04 07:12:35;;;;;;;;;;;;;;;17.49;61.95;99864.41;5052723;28;838;-56
2022/05/04 07:15:03;;;;;;;;;;;;;;;17.48;64.37;99865.66;5055092;28;1882;-56
2022/05/04 07:17:30;;;;;;;;;;;;;;;17.90;71.38;99864.69;5037390;28;998;-55
2022/05/04 07:19:56;;;;;;;;;;;;;;;18.65;63.02;99867.66;5055262;28;847;-56
2022/05/04 07:22:23;;;;;;;;;;;;;;;18.22;58.31;99860.81;5054998;28;807;-56
2022/05/04 07:24:50;;;;;;;;;;;;;;;18.08;69.26;99867.69;5054807;28;958;-57
2022/05/04 07:27:18;;;;;;;;;;;;;;;18.00;67.75;99871.94;5033473;28;1398;-56
2022/05/04 07:29:46;;;;;;;;;;;;;;;18.05;68.61;99874.19;5034878;28;827;-56
2022/05/04 07:32:13;;;;;;;;;;;;;;;18.06;58.38;99872.16;5034965;28;842;-56
2022/05/04 07:34:40;;;;;;;;;;;;;;;17.81;60.76;99868.16;5034606;28;1910;-56
2022/05/04 07:37:05;;;;;;;;;;;;;;;18.08;60.33;99870.47;5033595;28;847;-56
2022/05/04 07:42:21;;;;;;;;;;;;;;;19.11;63.90;99878.34;5034729;28;779;-54
2022/05/04 07:45:21;;;;;;;;;;;;;;;20.28;56.90;99871.97;5034669;28;1024;-56
2022/05/04 07:47:48;;;;;;;;;;;;;;;19.83;61.09;99873.47;5034475;28;1072;-56
2022/05/04 07:50:17;;;;;;;;;;;;;;;19.68;57.46;99878.88;5034545;28;882;-57
2022/05/04 07:52:44;;;;;;;;;;;;;;;20.58;53.25;99875.09;5034444;28;1941;-57
2022/05/04 07:55:11;;;;;;;;;;;;;;;21.49;54.41;99872.50;5034499;28;865;-56
2022/05/04 07:57:36;;;;;;;;;;;;;;;21.45;48.00;99878.31;5034416;28;831;-57
2022/05/04 08:05:35;;;;;;;;;;;;;;;21.88;50.95;99881.03;5034599;28;617;-57
2022/05/04 08:08:00;;;;;;;;;;;;;;;21.80;42.88;99870.13;5016571;28;885;-56
2022/05/04 08:10:27;;;;;;;;;;;;;;;21.68;48.96;99873.97;5034173;28;971;-55
2022/05/04 08:12:54;;;;;;;;;;;;;;;22.67;51.14;99869.28;5034112;28;1941;-56
2022/05/04 08:15:21;;;;;;;;;;;;;;;23.39;43.89;99868.19;5034077;28;839;-57
2022/05/04 08:17:48;;;;;;;;;;;;;;;23.37;41.98;99868.69;5033983;28;950;-56
2022/05/04 08:20:15;;;;;;;;;;;;;;;22.85;52.28;99876.75;5033994;28;799;-56
2022/05/04 08:22:43;;;;;;;;;;;;;;;23.53;56.85;99869.41;5033929;28;919;-56
2022/05/04 08:25:10;;;;;;;;;;;;;;;23.79;52.30;99864.69;5033180;28;900;-56
2022/05/04 08:27:37;;;;;;;;;;;;;;;24.11;52.41;99867.66;5049749;28;1277;-57
2022/05/04 08:30:04;;;;;;;;;;;;;;;23.88;52.31;99874.31;5053641;28;910;-56
2022/05/04 08:32:30;;;;;;;;;;;;;;;23.59;49.95;99867.44;5053617;28;802;-56
2022/05/04 08:34:58;;;;;;;;;;;;;;;23.55;46.50;99870.47;5053497;28;1914;-57
2022/05/04 08:37:27;;;;;;;;;;;;;;;23.61;51.90;99867.75;5053941;28;803;-56
2022/05/04 08:39:55;;;;;;;;;;;;;;;23.35;54.25;99868.41;5053794;28;799;-55
2022/05/04 08:42:22;;;;;;;;;;;;;;;23.54;55.64;99868.16;5053680;28;1226;-56
2022/05/04 08:44:58;;;;;;;;;;;;;;;22.76;58.62;99868.41;5053652;28;807;-57
2022/05/04 08:47:29;;;;;;;;;;;;;;;21.86;46.70;99881.50;5053334;28;1229;-56
2022/05/04 08:49:55;;;;;;;;;;;;;;;21.10;56.96;99880.75;5053373;28;830;-56
2022/05/04 08:52:22;;;;;;;;;;;;;;;21.24;56.20;99877.25;5053229;28;925;-56
2022/05/04 08:54:53;;;;;;;;;;;;;;;21.67;57.73;99878.00;5053249;28;1943;-56
2022/05/04 08:57:21;;;;;;;;;;;;;;;22.19;51.94;99866.56;5053149;28;874;-57
2022/05/04 08:59:49;;;;;;;;;;;;;;;22.10;48.91;99875.84;5053131;28;885;-57
2022/05/04 09:02:16;;;;;;;;;;;;;;;22.30;49.85;99872.47;5053049;28;818;-56
2022/05/04 09:04:43;;;;;;;;;;;;;;;22.37;53.74;99865.66;5035222;28;952;-55
2022/05/04 09:07:25;;;;;;;;;;;;;;;22.44;49.65;99865.28;5053086;28;865;-57
2022/05/04 09:09:53;;;;;;;;;;;;;;;21.98;54.65;99862.84;5053020;28;878;-56
2022/05/04 09:12:20;;;;;;;;;;;;;;;21.59;52.85;99866.34;5052890;28;865;-57
2022/05/04 09:14:46;;;;;;;;;;;;;;;21.51;56.79;99864.38;5052831;28;1862;-56
2022/05/04 09:17:16;;;;;;;;;;;;;;;21.48;50.81;99871.72;5053152;28;870;-57
2022/05/04 09:22:50;;;;;;;;;;;;;;;20.19;58.28;99857.94;5052773;28;684;-55
2022/05/04 09:25:20;;;;;;;;;;;;;;;21.34;58.11;99873.16;5052673;28;1104;-57
2022/05/04 09:27:48;;;;;;;;;;;;;;;21.81;57.60;99854.81;5052288;28;1462;-56
2022/05/04 09:30:15;;;;;;;;;;;;;;;21.84;55.69;99855.09;5052644;28;807;-56
2022/05/04 09:32:42;;;;;;;;;;;;;;;22.10;59.05;99850.53;5052459;28;802;-56
2022/05/04 09:35:16;;;;;;;;;;;;;;;22.14;51.46;99845.47;5052457;28;1914;-55
2022/05/04 09:46:15;;;;;;;;;;;;;;;20.47;44.76;99860.72;5052306;28;680;-56
2022/05/04 09:48:42;;;;;;;;;;;;;;;20.08;54.88;99857.59;5034398;28;1614;-57
2022/05/04 09:51:09;;;;;;;;;;;;;;;19.70;56.72;99854.00;5052195;28;826;-56
2022/05/04 09:53:36;;;;;;;;;;;;;;;19.48;52.94;99854.06;5034341;28;1952;-57
2022/05/04 09:56:03;;;;;;;;;;;;;;;19.86;58.20;99849.34;5052055;28;850;-56
2022/05/04 10:28:04;;;;;;;;;;;;;;;18.15;51.27;99841.47;5023325;28;1310;-56
2022/05/04 10:30:31;;;;;;;;;;;;;;;17.57;52.84;99837.03;5031625;28;961;-54
2022/05/04 10:32:59;;;;;;;;;;;;;;;17.36;51.54;99830.13;5031658;28;1914;-56
2022/05/04 10:35:36;;;;;;;;;;;;;;;17.43;54.14;99843.06;5031661;28;861;-56
2022/05/04 10:38:04;;;;;;;;;;;;;;;18.44;58.65;99837.66;5031544;28;955;-54
2022/05/04 10:40:35;;;;;;;;;;;;;;;20.15;52.92;99843.28;5031558;28;882;-56
2022/05/04 10:43:03;;;;;;;;;;;;;;;20.24;60.76;99840.47;5031577;28;803;-55
2022/05/04 10:45:32;;;;;;;;;;;;;;;20.16;62.92;99834.41;5031588;28;795;-56
2022/05/04 10:48:16;;;;;;;;;;;;;;;19.84;64.33;99841.38;5031024;28;945;-56
2022/05/04 10:51:08;;;;;;;;;;;;;;;19.53;67.50;99844.28;5031500;28;802;-56
2022/05/04 10:53:36;;;;;;;;;;;;;;;19.42;70.31;99841.13;5019886;28;1878;-56
2022/05/04 10:56:16;;;;;;;;;;;;;;;19.72;70.51;99840.28;5031351;28;842;-56
2022/05/04 10:58:44;;;;;;;;;;;;;;;20.02;66.98;99837.81;5031476;28;799;-55
2022/05/04 11:01:12;;;;;;;;;;;;;;;20.35;66.50;99842.78;5013726;28;1339;-55
2022/05/04 11:03:49;;;;;;;;;;;;;;;20.50;56.49;99837.31;5031455;28;811;-56
2022/05/04 11:06:44;;;;;;;;;;;;;;;20.20;57.52;99837.03;5031347;28;783;-56
2022/05/04 11:09:18;;;;;;;;;;;;;;;20.18;63.18;99843.13;4995408;28;1217;-56
2022/05/04 11:11:46;;;;;;;;;;;;;;;20.05;56.49;99838.91;5013565;28;1386;-54
2022/05/04 11:14:13;;;;;;;;;;;;;;;19.94;59.39;99836.56;5031139;28;1889;-56
2022/05/04 11:16:41;;;;;;;;;;;;;;;20.12;57.18;99833.78;5031310;28;807;-57
2022/05/04 11:19:08;;;;;;;;;;;;;;;20.29;57.41;99845.47;5031237;28;795;-56
2022/05/04 11:21:37;;;;;;;;;;;;;;;20.16;57.61;99837.22;5031218;28;850;-55
2022/05/04 11:24:05;;;;;;;;;;;;;;;19.92;61.56;99842.63;5031125;28;977;-55
2022/05/04 11:26:41;;;;;;;;;;;;;;;19.98;55.07;99840.78;5031084;28;1227;-56
2022/05/04 11:29:14;;;;;;;;;;;;;;;19.56;57.47;99848.94;5031706;28;877;-54
2022/05/04 11:31:46;;;;;;;;;;;;;;;19.12;57.54;99851.91;5031055;28;870;-56
2022/05/04 11:34:16;;;;;;;;;;;;;;;18.79;60.17;99852.34;5031270;28;1919;-55
2022/05/04 11:36:44;;;;;;;;;;;;;;;18.54;58.03;99856.84;5031132;28;891;-56
2022/05/04 11:39:15;;;;;;;;;;;;;;;18.35;60.07;99855.94;5031040;28;816;-56
2022/05/04 11:41:44;;;;;;;;;;;;;;;18.40;57.96;99848.97;5031219;28;937;-57
2022/05/04 11:47:14;;;;;;;;;;;;;;;18.02;59.24;99852.69;5031061;28;648;-54
2022/05/04 11:49:40;;;;;;;;;;;;;;;18.18;61.18;99854.56;5031237;28;810;-55
2022/05/04 11:52:08;;;;;;;;;;;;;;;18.62;63.36;99854.56;5030913;28;874;-55
2022/05/04 11:54:33;;;;;;;;;;;;;;;19.07;59.67;99850.47;5030926;28;1957;-56
2022/05/04 11:57:00;;;;;;;;;;;;;;;19.47;59.01;99846.88;5030832;28;831;-55
2022/05/04 11:59:33;;;;;;;;;;;;;;;20.11;56.73;99848.28;5032022;28;897;-55
2022/05/04 12:02:00;;;;;;;;;;;;;;;20.72;54.37;99851.22;5034376;28;1286;-56
2022/05/04 12:04:27;;;;;;;;;;;;;;;21.01;56.68;99854.22;5034376;28;830;-56
2022/05/04 12:06:56;;;;;;;;;;;;;;;20.71;53.09;99844.03;5034389;28;873;-56
2022/05/04 12:09:23;;;;;;;;;;;;;;;19.72;54.32;99843.09;5034557;28;822;-56
2022/05/04 12:11:49;;;;;;;;;;;;;;;19.09;58.01;99828.38;5034450;28;787;-57
2022/05/04 12:14:16;;;;;;;;;;;;;;;18.59;59.10;99837.91;5034230;28;1890;-55
2022/05/04 12:16:44;;;;;;;;;;;;;;;18.66;57.99;99832.03;5034289;28;1008;-56
2022/05/04 12:19:11;;;;;;;;;;;;;;;19.17;57.54;99824.06;5034377;28;850;-56
2022/05/04 12:21:38;;;;;;;;;;;;;;;19.28;59.79;99834.84;5034208;28;949;-56
2022/05/04 12:24:05;;;;;;;;;;;;;;;19.03;55.20;99832.25;5034007;28;930;-56
2022/05/04 12:26:33;;;;;;;;;;;;;;;18.54;57.45;99831.66;5033980;28;1198;-56
2022/05/04 12:34:31;;;;;;;;;;;;;;;17.67;67.42;99846.28;5033881;28;1921;-55
2022/05/04 12:37:01;;;;;;;;;;;;;;;17.68;68.26;99840.25;5033656;28;878;-55
2022/05/04 12:39:28;;;;;;;;;;;;;;;17.77;69.25;99845.13;5016701;28;950;-54
2022/05/04 12:41:59;;;;;;;;;;;;;;;17.84;68.86;99853.31;5033925;28;778;-54
2022/05/04 12:44:26;;;;;;;;;;;;;;;17.74;68.56;99849.63;5033626;28;866;-55
2022/05/04 12:46:57;;;;;;;;;;;;;;;17.80;70.02;99852.63;5033683;28;873;-54
2022/05/04 12:49:23;;;;;;;;;;;;;;;17.94;70.43;99854.97;5033570;28;873;-54
2022/05/04 12:51:51;;;;;;;;;;;;;;;17.97;71.20;99847.69;5033493;28;787;-54
2022/05/04 12:54:18;;;;;;;;;;;;;;;17.95;68.95;99847.38;5033418;28;1889;-54
2022/05/04 12:56:46;;;;;;;;;;;;;;;17.79;66.32;99853.06;5033656;28;814;-55
2022/05/04 12:59:16;;;;;;;;;;;;;;;17.73;66.49;99847.25;5033179;28;965;-54
2022/05/04 13:01:43;;;;;;;;;;;;;;;19.21;64.11;99846.34;5033383;28;964;-55
2022/05/04 13:04:12;;;;;;;;;;;;;;;20.84;60.67;99846.66;5033231;28;926;-55
2022/05/04 13:06:39;;;;;;;;;;;;;;;22.05;60.51;99842.00;5015376;28;894;-56
2022/05/04 13:09:06;;;;;;;;;;;;;;;23.05;56.88;99844.34;5033195;28;802;-56
2022/05/04 13:11:34;;;;;;;;;;;;;;;23.02;52.45;99832.78;5032780;28;865;-56
2022/05/04 13:14:00;;;;;;;;;;;;;;;22.78;50.21;99832.84;5032970;28;1931;-56
2022/05/04 13:16:27;;;;;;;;;;;;;;;22.39;48.82;99835.75;5033017;28;819;-57
2022/05/04 13:18:53;;;;;;;;;;;;;;;22.15;53.55;99832.22;5032880;28;894;-56
2022/05/04 13:21:21;;;;;;;;;;;;;;;22.53;50.49;99834.25;5032857;28;811;-57
2022/05/04 13:23:47;;;;;;;;;;;;;;;22.48;46.15;99832.09;5032789;28;878;-57
2022/05/04 13:26:15;;;;;;;;;;;;;;;22.46;44.95;99831.78;5032853;28;1524;-56
2022/05/04 13:28:42;;;;;;;;;;;;;;;22.45;46.77;99826.63;5015348;28;857;-57
2022/05/04 13:31:12;;;;;;;;;;;;;;;22.24;44.99;99828.56;5032725;28;854;-57
2022/05/04 13:33:41;;;;;;;;;;;;;;;22.13;47.10;99823.47;5032578;28;1906;-57
2022/05/04 13:36:08;;;;;;;;;;;;;;;22.05;46.96;99823.06;5032499;28;811;-57
2022/05/04 13:41:38;;;;;;;;;;;;;;;21.49;46.51;99822.66;5032571;28;688;-57
2022/05/04 13:53:14;;;;;;;;;;;;;;;20.89;47.71;99815.91;5032754;28;605;-55
2022/05/04 13:55:42;;;;;;;;;;;;;;;20.45;51.09;99821.13;5032561;28;1309;-56
2022/05/04 13:58:11;;;;;;;;;;;;;;;20.52;48.67;99820.78;5032286;28;798;-57
2022/05/04 14:00:38;;;;;;;;;;;;;;;20.74;48.96;99821.41;5032195;28;795;-56
2022/05/04 14:03:05;;;;;;;;;;;;;;;20.70;44.76;99820.78;5032334;28;794;-57
2022/05/04 14:05:31;;;;;;;;;;;;;;;20.40;44.73;99816.94;5032000;28;958;-57
2022/05/04 14:07:59;;;;;;;;;;;;;;;20.31;49.99;99825.34;5032331;28;831;-56
2022/05/04 14:10:25;;;;;;;;;;;;;;;20.25;46.48;99825.19;5032063;28;866;-56
2022/05/04 14:12:54;;;;;;;;;;;;;;;20.26;47.42;99823.16;5031979;28;822;-57
2022/05/04 14:15:20;;;;;;;;;;;;;;;19.97;50.13;99819.59;5032448;28;1898;-56
2022/05/04 14:17:47;;;;;;;;;;;;;;;19.94;51.06;99816.94;5031907;28;858;-56
2022/05/04 14:20:13;;;;;;;;;;;;;;;20.02;46.26;99823.81;5031857;28;915;-57
2022/05/04 14:22:39;;;;;;;;;;;;;;;19.96;50.52;99822.84;5031019;28;978;-55
2022/05/04 14:25:06;;;;;;;;;;;;;;;20.06;54.10;99832.06;5031835;28;921;-54
2022/05/04 14:27:33;;;;;;;;;;;;;;;19.95;47.16;99826.91;5031565;28;1457;-56
2022/05/04 14:29:59;;;;;;;;;;;;;;;19.46;45.97;99819.31;5031952;28;814;-57
2022/05/04 14:32:26;;;;;;;;;;;;;;;19.16;47.75;99824.50;5031669;28;818;-57
2022/05/04 14:34:53;;;;;;;;;;;;;;;19.01;47.48;99818.72;5031605;28;1914;-55
2022/05/04 14:37:21;;;;;;;;;;;;;;;18.95;50.70;99821.34;5031578;28;890;-57